Time;durP1;ratioP1;P1;durP2;ratioP2;P2;SDS_P1;SDS_P2;PMS_P1;PMS_P2;Temp;Humidity;BMP_temperature;BMP_pressure;BME280_temperature;BME280_humidity;BME280_pressure;Samples;Min_cycle;Max_cycle;Signal;HPM_P1;HPM_P2
2023/03/22 00:00:19;;;;;;;56.65;52.13;;;9.20;99.90;;;;;;5229100;28;20040;-79
2023/03/22 00:02:50;;;;;;;58.88;54.25;;;9.30;99.90;;;;;;5229141;28;20025;-80
2023/03/22 00:05:21;;;;;;;55.70;51.30;;;9.10;99.90;;;;;;5246965;28;20028;-81
2023/03/22 00:07:56;;;;;;;62.05;56.85;;;9.10;99.90;;;;;;5247087;28;20024;-81
2023/03/22 00:10:27;;;;;;;59.13;54.75;;;9.20;99.90;;;;;;5247161;28;20021;-82
2023/03/22 00:12:59;;;;;;;61.17;56.58;;;9.20;99.90;;;;;;5250905;28;20111;-77
2023/03/22 00:15:30;;;;;;;62.00;57.10;;;9.30;99.90;;;;;;5250957;28;20043;-75
2023/03/22 00:18:01;;;;;;;60.88;56.38;;;9.30;99.90;;;;;;5251362;28;20017;-82
2023/03/22 00:20:36;;;;;;;59.28;54.33;;;9.20;99.90;;;;;;5250930;28;20036;-82
2023/03/22 00:23:07;;;;;;;59.47;54.78;;;9.10;99.90;;;;;;5232956;28;20031;-81
2023/03/22 00:25:38;;;;;;;61.80;57.03;;;9.20;99.90;;;;;;5250529;28;20038;-80
2023/03/22 00:28:10;;;;;;;65.05;59.45;;;9.10;99.90;;;;;;5250510;28;20078;-69
2023/03/22 00:30:41;;;;;;;67.50;62.22;;;9.20;99.90;;;;;;5232606;28;20078;-80
2023/03/22 00:33:12;;;;;;;63.72;58.63;;;9.10;99.90;;;;;;5250583;28;20074;-72
2023/03/22 00:36:06;;;;;;;62.08;56.65;;;9.20;99.90;;;;;;5250451;28;20466;-68
2023/03/22 00:38:37;;;;;;;60.03;55.03;;;9.30;99.90;;;;;;5250516;28;20019;-81
2023/03/22 00:41:27;;;;;;;65.07;60.22;;;9.20;99.90;;;;;;5250362;28;20115;-81
2023/03/22 00:43:58;;;;;;;63.50;58.60;;;9.10;99.90;;;;;;5250537;28;20025;-81
2023/03/22 00:46:29;;;;;;;59.53;54.20;;;9.20;99.90;;;;;;5250480;28;20659;-81
2023/03/22 00:49:00;;;;;;;60.75;55.65;;;9.40;99.90;;;;;;5250339;28;20039;-81
2023/03/22 00:51:30;;;;;;;62.50;57.38;;;9.00;99.90;;;;;;5250271;28;20016;-81
2023/03/22 00:54:01;;;;;;;62.90;57.85;;;9.20;99.90;;;;;;5250034;28;20040;-81
2023/03/22 00:56:32;;;;;;;62.72;57.63;;;9.40;99.90;;;;;;5250052;28;20110;-76
2023/03/22 00:59:04;;;;;;;59.00;54.33;;;9.10;99.90;;;;;;5249807;28;20112;-80
2023/03/22 01:01:35;;;;;;;59.55;55.05;;;9.20;99.90;;;;;;5249827;28;20028;-80
2023/03/22 01:04:06;;;;;;;62.47;57.38;;;9.40;99.90;;;;;;5249869;28;20021;-80
2023/03/22 01:06:37;;;;;;;59.08;54.60;;;9.30;99.90;;;;;;5250054;28;20387;-81
2023/03/22 01:09:08;;;;;;;57.28;52.70;;;9.10;99.90;;;;;;5249651;28;20036;-69
2023/03/22 01:11:39;;;;;;;55.42;50.63;;;9.20;99.90;;;;;;5249777;28;20517;-81
2023/03/22 01:14:12;;;;;;;61.15;56.45;;;9.20;99.90;;;;;;5249582;28;20037;-79
2023/03/22 01:16:43;;;;;;;64.40;59.13;;;9.20;99.90;;;;;;5249625;28;20561;-72
2023/03/22 01:19:14;;;;;;;59.50;54.30;;;9.40;99.90;;;;;;5231339;28;20028;-81
2023/03/22 01:21:45;;;;;;;63.85;58.25;;;9.10;99.90;;;;;;5249047;28;20372;-80
2023/03/22 01:24:15;;;;;;;65.35;60.15;;;9.10;99.90;;;;;;5249560;28;20044;-81
2023/03/22 01:26:46;;;;;;;62.88;57.78;;;9.10;99.90;;;;;;5249103;28;20041;-69
2023/03/22 01:29:17;;;;;;;60.35;55.15;;;9.10;99.90;;;;;;5231446;28;20388;-79
2023/03/22 01:31:48;;;;;;;58.60;53.78;;;9.20;99.90;;;;;;5249357;28;20024;-68
2023/03/22 01:34:19;;;;;;;56.20;51.58;;;9.40;99.90;;;;;;5249256;28;20052;-71
2023/03/22 01:36:50;;;;;;;56.90;52.38;;;9.40;99.90;;;;;;5249406;28;20395;-80
2023/03/22 01:39:21;;;;;;;59.85;55.10;;;9.20;99.90;;;;;;5249332;28;20048;-82
2023/03/22 01:41:52;;;;;;;59.05;54.13;;;9.10;99.90;;;;;;5248685;28;20032;-70
2023/03/22 01:44:23;;;;;;;56.95;52.40;;;9.10;99.90;;;;;;5249100;28;20032;-82
2023/03/22 01:46:54;;;;;;;55.08;50.67;;;9.00;99.90;;;;;;5249023;28;20012;-69
2023/03/22 01:49:29;;;;;;;58.30;53.80;;;9.10;99.90;;;;;;5249051;28;20380;-81
2023/03/22 01:52:10;;;;;;;61.10;56.47;;;9.00;99.90;;;;;;5248901;28;20499;-82
2023/03/22 01:54:49;;;;;;;61.60;56.75;;;9.10;99.90;;;;;;5248858;28;20050;-76
2023/03/22 01:57:20;;;;;;;56.50;52.13;;;9.10;99.90;;;;;;5248593;28;20399;-82
2023/03/22 01:59:51;;;;;;;57.05;52.63;;;9.20;99.90;;;;;;5230863;28;20031;-81
2023/03/22 02:02:23;;;;;;;54.78;50.28;;;9.00;99.90;;;;;;5230648;28;20020;-81
2023/03/22 02:04:56;;;;;;;56.78;52.35;;;9.10;99.90;;;;;;5248562;28;20005;-81
2023/03/22 02:07:27;;;;;;;58.15;53.30;;;9.20;99.90;;;;;;5248657;28;20043;-82
2023/03/22 02:09:58;;;;;;;55.38;51.05;;;9.00;99.90;;;;;;5248551;28;20095;-82
2023/03/22 02:12:48;;;;;;;61.05;56.45;;;9.20;99.90;;;;;;5248592;28;20420;-70
2023/03/22 02:15:19;;;;;;;58.88;53.63;;;9.10;99.90;;;;;;5230636;28;20025;-69
2023/03/22 02:18:19;;;;;;;62.75;57.75;;;9.30;99.90;;;;;;5248426;28;20082;-80
2023/03/22 02:20:57;;;;;;;;;;;9.30;99.90;;;;;;5248820;28;20036;-82
2023/03/22 02:24:02;;;;;;;64.75;59.40;;;9.10;99.90;;;;;;5248301;28;19908;-81
2023/03/22 02:26:48;;;;;;;57.42;52.70;;;9.20;99.90;;;;;;5229839;28;20040;-77
2023/03/22 02:29:37;;;;;;;59.80;55.03;;;9.10;99.90;;;;;;5230217;28;20032;-81
2023/03/22 02:32:38;;;;;;;61.55;56.42;;;9.10;99.90;;;;;;5248131;28;20071;-82
2023/03/22 02:35:12;;;;;;;56.38;52.00;;;9.20;99.90;;;;;;5247328;28;20455;-81
2023/03/22 02:37:55;;;;;;;59.63;54.75;;;9.00;99.90;;;;;;5247839;28;20035;-82
2023/03/22 02:40:40;;;;;;;59.55;55.00;;;9.20;99.90;;;;;;5248110;28;20368;-82
2023/03/22 02:43:19;;;;;;;59.10;54.40;;;9.10;99.90;;;;;;5248230;28;20021;-82
2023/03/22 02:46:04;;;;;;;55.65;51.25;;;9.20;99.90;;;;;;5229997;28;20078;-81
2023/03/22 02:49:25;;;;;;;56.53;52.25;;;9.10;99.90;;;;;;5230157;28;20111;-83
2023/03/22 02:52:40;;;;;;;59.45;55.13;;;8.90;99.90;;;;;;5143587;28;20158;-82
2023/03/22 02:55:54;;;;;;;54.72;50.63;;;9.10;99.90;;;;;;5234945;28;20036;-83
2023/03/22 02:58:30;;;;;;;61.72;57.05;;;9.00;99.90;;;;;;5225894;28;20400;-83
2023/03/22 03:01:10;;;;;;;57.92;53.50;;;8.90;99.90;;;;;;5247742;28;20036;-82
2023/03/22 03:03:41;;;;;;;64.68;60.08;;;8.90;99.90;;;;;;5247829;28;20138;-80
2023/03/22 03:06:16;;;;;;;65.53;60.67;;;9.00;99.90;;;;;;5248001;28;20146;-82
2023/03/22 03:08:52;;;;;;;57.85;53.38;;;9.10;99.90;;;;;;5247651;28;20021;-83
2023/03/22 03:11:23;;;;;;;55.22;50.72;;;9.00;99.90;;;;;;5229693;28;20027;-83
2023/03/22 03:13:54;;;;;;;57.75;53.40;;;9.00;99.90;;;;;;5247578;28;20016;-83
2023/03/22 03:16:28;;;;;;;55.65;51.38;;;9.00;99.90;;;;;;5247628;28;20028;-82
2023/03/22 03:19:16;;;;;;;56.28;51.97;;;9.00;99.90;;;;;;5247576;28;20073;-83
2023/03/22 03:22:01;;;;;;;63.28;58.60;;;8.90;99.90;;;;;;5247537;28;20476;-80
2023/03/22 03:24:35;;;;;;;60.17;55.63;;;8.90;99.90;;;;;;5247474;28;20058;-80
2023/03/22 03:27:06;;;;;;;62.70;57.65;;;9.00;99.90;;;;;;5247014;28;20040;-83
2023/03/22 03:29:39;;;;;;;58.88;53.97;;;8.90;99.90;;;;;;5247523;28;20025;-83
2023/03/22 03:32:43;;;;;;;57.40;52.55;;;9.10;99.90;;;;;;5229354;28;20056;-82
2023/03/22 03:35:36;;;;;;;57.25;52.85;;;9.00;99.90;;;;;;5192158;28;20040;-83
2023/03/22 03:38:16;;;;;;;62.30;57.38;;;9.00;99.90;;;;;;5247336;28;20082;-83
2023/03/22 03:40:56;;;;;;;64.47;59.58;;;8.90;99.90;;;;;;5247157;28;20039;-83
2023/03/22 03:43:27;;;;;;;59.13;54.63;;;9.10;99.90;;;;;;5229328;28;20039;-83
2023/03/22 03:45:58;;;;;;;60.33;55.65;;;9.00;99.90;;;;;;5249772;28;20531;-82
2023/03/22 03:48:32;;;;;;;61.63;56.60;;;9.00;99.90;;;;;;5251359;28;20495;-82
2023/03/22 03:51:03;;;;;;;60.75;56.03;;;9.00;99.90;;;;;;5251214;28;20099;-82
2023/03/22 03:53:34;;;;;;;63.70;58.58;;;9.00;99.90;;;;;;5251250;28;20089;-80
2023/03/22 03:56:06;;;;;;;59.58;54.85;;;9.10;99.90;;;;;;5251098;28;20025;-83
2023/03/22 03:58:36;;;;;;;64.13;58.95;;;9.10;99.90;;;;;;5251132;28;20021;-82
2023/03/22 04:01:07;;;;;;;57.65;52.83;;;9.10;99.90;;;;;;5251015;28;20036;-83
2023/03/22 04:03:38;;;;;;;65.85;60.47;;;8.90;99.90;;;;;;5233283;28;20025;-83
2023/03/22 04:06:09;;;;;;;67.07;61.75;;;9.00;99.90;;;;;;5251064;28;20649;-82
2023/03/22 04:08:40;;;;;;;58.30;53.83;;;8.90;99.90;;;;;;5251377;28;20028;-82
2023/03/22 04:11:11;;;;;;;59.80;54.95;;;9.00;99.90;;;;;;5233017;28;20036;-83
2023/03/22 04:13:41;;;;;;;60.20;55.25;;;9.10;99.90;;;;;;5250796;28;20029;-69
2023/03/22 04:16:12;;;;;;;57.88;53.42;;;9.00;99.90;;;;;;5250950;28;20047;-84
2023/03/22 04:18:43;;;;;;;62.80;57.60;;;9.00;99.90;;;;;;5250560;28;20048;-83
2023/03/22 04:21:15;;;;;;;61.80;56.42;;;9.20;99.90;;;;;;5250644;28;20039;-83
2023/03/22 04:23:46;;;;;;;62.97;58.17;;;9.10;99.90;;;;;;5250863;28;20032;-82
2023/03/22 04:26:16;;;;;;;63.28;58.17;;;9.20;99.90;;;;;;5250383;28;20032;-82
2023/03/22 04:28:47;;;;;;;60.90;56.08;;;9.20;99.90;;;;;;5250400;28;20120;-82
2023/03/22 04:31:18;;;;;;;56.97;52.55;;;9.20;99.90;;;;;;5250561;28;20029;-83
2023/03/22 04:33:53;;;;;;;55.95;51.42;;;9.20;99.90;;;;;;5250409;28;20697;-83
2023/03/22 04:36:25;;;;;;;57.25;52.80;;;9.10;99.90;;;;;;5250501;28;20019;-80
2023/03/22 04:38:56;;;;;;;63.47;58.60;;;8.90;99.90;;;;;;5232461;28;20543;-83
2023/03/22 04:41:27;;;;;;;59.35;54.30;;;9.10;99.90;;;;;;5250343;28;20124;-81
2023/03/22 04:44:02;;;;;;;55.20;49.92;;;9.20;99.90;;;;;;5250373;28;20427;-82
2023/03/22 04:46:35;;;;;;;57.88;52.78;;;9.20;99.90;;;;;;5250253;28;20082;-83
2023/03/22 04:49:06;;;;;;;57.92;52.75;;;9.20;99.90;;;;;;5250278;28;20025;-83
2023/03/22 04:51:36;;;;;;;55.10;50.88;;;9.20;99.90;;;;;;5250313;28;20082;-83
2023/03/22 04:54:07;;;;;;;54.20;49.97;;;9.30;99.90;;;;;;5250101;28;20471;-82
2023/03/22 04:56:38;;;;;;;56.50;51.80;;;9.30;99.90;;;;;;5249165;28;20036;-81
2023/03/22 04:59:09;;;;;;;59.60;54.47;;;9.20;99.90;;;;;;5250126;28;20029;-76
2023/03/22 05:01:41;;;;;;;57.65;52.90;;;9.20;99.90;;;;;;5249926;28;20167;-77
2023/03/22 05:04:12;;;;;;;54.70;50.13;;;9.20;99.90;;;;;;5249885;28;20024;-82
2023/03/22 05:06:44;;;;;;;55.45;50.97;;;9.30;99.90;;;;;;5231954;28;20472;-83
2023/03/22 05:09:15;;;;;;;54.45;50.17;;;9.40;99.90;;;;;;5249868;28;20472;-83
2023/03/22 05:11:46;;;;;;;55.58;50.65;;;9.40;99.90;;;;;;5249559;28;20055;-82
2023/03/22 05:14:17;;;;;;;58.35;52.88;;;9.40;99.90;;;;;;5249777;28;20507;-83
2023/03/22 05:16:48;;;;;;;51.35;47.30;;;9.40;99.90;;;;;;5249802;28;20020;-82
2023/03/22 05:19:21;;;;;;;58.15;53.55;;;9.40;99.90;;;;;;5249753;28;20025;-83
2023/03/22 05:21:56;;;;;;;53.92;49.33;;;9.50;99.90;;;;;;5249753;28;20044;-83
2023/03/22 05:24:30;;;;;;;54.15;49.58;;;9.50;99.90;;;;;;5231777;28;20082;-83
2023/03/22 05:27:02;;;;;;;55.00;50.80;;;9.40;99.90;;;;;;5227238;28;20136;-83
2023/03/22 05:29:35;;;;;;;52.08;47.63;;;9.50;99.90;;;;;;5227798;28;20061;-83
2023/03/22 05:32:06;;;;;;;58.05;52.63;;;9.60;99.90;;;;;;5228958;28;20047;-83
2023/03/22 05:34:37;;;;;;;54.60;49.63;;;9.50;99.90;;;;;;5228844;28;20061;-69
2023/03/22 05:37:09;;;;;;;55.92;51.03;;;9.60;99.90;;;;;;5228912;28;20013;-82
2023/03/22 05:39:39;;;;;;;54.53;49.97;;;9.70;99.90;;;;;;5228669;28;20025;-81
2023/03/22 05:42:10;;;;;;;55.45;50.20;;;9.70;99.90;;;;;;5228699;28;20090;-82
2023/03/22 05:44:41;;;;;;;51.80;47.70;;;9.60;99.90;;;;;;5228469;28;20032;-80
2023/03/22 05:47:12;;;;;;;49.78;45.72;;;9.70;99.90;;;;;;5228661;28;20399;-83
2023/03/22 05:49:43;;;;;;;130.27;121.78;;;9.60;99.90;;;;;;5228506;28;20024;-83
2023/03/22 05:52:14;;;;;;;48.22;44.58;;;9.60;99.90;;;;;;5228374;28;20440;-82
2023/03/22 05:54:45;;;;;;;50.05;45.78;;;9.80;99.90;;;;;;5226970;28;20025;-76
2023/03/22 05:57:16;;;;;;;48.75;45.03;;;9.70;99.90;;;;;;5228285;28;20033;-82
2023/03/22 05:59:47;;;;;;;52.78;48.42;;;9.80;99.90;;;;;;5228225;28;20036;-83
2023/03/22 06:02:18;;;;;;;48.35;44.45;;;9.80;99.90;;;;;;5228160;28;20029;-83
2023/03/22 06:04:49;;;;;;;53.40;49.22;;;9.80;99.90;;;;;;5228174;28;20358;-83
2023/03/22 06:07:19;;;;;;;50.60;46.47;;;9.60;99.90;;;;;;5228163;28;20033;-82
2023/03/22 06:09:50;;;;;;;46.33;42.63;;;9.80;99.90;;;;;;5227930;28;20057;-82
2023/03/22 06:12:23;;;;;;;47.80;44.20;;;9.80;99.90;;;;;;5227811;28;20067;-83
2023/03/22 06:14:54;;;;;;;45.60;41.78;;;9.70;99.90;;;;;;5227776;28;20079;-83
2023/03/22 06:17:25;;;;;;;46.95;42.78;;;9.70;99.90;;;;;;5227807;28;20021;-82
2023/03/22 06:19:56;;;;;;;44.05;40.63;;;9.80;99.90;;;;;;5227720;28;20033;-82
2023/03/22 06:22:29;;;;;;;47.03;43.33;;;9.70;99.90;;;;;;5227749;28;20120;-83
2023/03/22 06:25:00;;;;;;;47.47;43.72;;;9.80;99.90;;;;;;5226393;28;20060;-82
2023/03/22 06:27:31;;;;;;;50.53;46.45;;;9.80;99.90;;;;;;5225980;28;20566;-83
2023/03/22 06:30:03;;;;;;;47.17;43.33;;;9.80;99.90;;;;;;5227525;28;20036;-82
2023/03/22 06:32:34;;;;;;;49.78;45.83;;;9.90;99.90;;;;;;5227208;28;20075;-81
2023/03/22 06:35:05;;;;;;;47.33;43.47;;;9.70;99.90;;;;;;5227346;28;20067;-81
2023/03/22 06:37:36;;;;;;;47.03;43.05;;;9.80;99.90;;;;;;5217255;28;20029;-83
2023/03/22 06:40:08;;;;;;;50.13;46.17;;;9.90;99.90;;;;;;5221913;28;20017;-83
2023/03/22 06:42:39;;;;;;;53.25;49.10;;;9.90;99.90;;;;;;5206723;28;20142;-83
2023/03/22 06:45:13;;;;;;;48.97;45.05;;;9.90;99.90;;;;;;5206816;28;20623;-73
2023/03/22 06:47:44;;;;;;;46.30;42.58;;;9.90;99.90;;;;;;5206538;28;20026;-83
2023/03/22 06:50:15;;;;;;;46.95;43.22;;;9.90;99.90;;;;;;5206537;28;20082;-79
2023/03/22 06:52:46;;;;;;;49.20;45.40;;;10.10;99.90;;;;;;5206557;28;20401;-81
2023/03/22 06:55:16;;;;;;;48.65;44.75;;;9.90;99.90;;;;;;5205197;28;20021;-82
2023/03/22 06:57:47;;;;;;;47.72;43.95;;;10.00;99.90;;;;;;5205900;28;20087;-82
2023/03/22 07:00:18;;;;;;;47.03;43.20;;;10.00;99.90;;;;;;5206172;28;20541;-83
2023/03/22 07:02:49;;;;;;;48.05;43.78;;;10.00;99.90;;;;;;5206295;28;20206;-77
2023/03/22 07:05:20;;;;;;;48.03;43.95;;;9.90;99.90;;;;;;5209227;28;20104;-82
2023/03/22 07:07:51;;;;;;;48.03;44.22;;;10.00;99.90;;;;;;5205197;28;20033;-82
2023/03/22 07:10:22;;;;;;;48.13;44.53;;;10.00;99.90;;;;;;5206251;28;20018;-71
2023/03/22 07:12:53;;;;;;;44.20;40.63;;;10.00;99.90;;;;;;5206474;28;20017;-82
2023/03/22 07:15:23;;;;;;;50.40;46.50;;;9.90;99.90;;;;;;5206301;28;20018;-70
2023/03/22 07:17:54;;;;;;;47.88;43.67;;;10.00;99.90;;;;;;5206339;28;20032;-75
2023/03/22 07:20:26;;;;;;;49.08;45.08;;;9.90;99.90;;;;;;5204421;28;20081;-76
2023/03/22 07:22:56;;;;;;;46.70;42.97;;;9.90;99.90;;;;;;5204871;28;20026;-76
2023/03/22 07:25:27;;;;;;;50.97;46.88;;;10.00;99.90;;;;;;5206178;28;20025;-69
2023/03/22 07:27:59;;;;;;;51.25;46.88;;;9.90;99.90;;;;;;5218110;28;20523;-74
2023/03/22 07:30:30;;;;;;;50.72;46.38;;;9.80;99.90;;;;;;5226582;28;20033;-76
2023/03/22 07:33:01;;;;;;;52.20;47.80;;;9.80;99.90;;;;;;5226624;28;20040;-77
2023/03/22 07:35:32;;;;;;;49.22;45.22;;;9.80;99.90;;;;;;5233044;28;20031;-77
2023/03/22 07:38:04;;;;;;;51.38;47.25;;;10.00;99.90;;;;;;5229231;28;20115;-76
2023/03/22 07:40:36;;;;;;;49.80;45.50;;;9.80;99.90;;;;;;5246884;28;20028;-75
2023/03/22 07:43:06;;;;;;;52.63;48.47;;;9.90;99.90;;;;;;5229044;28;20392;-77
2023/03/22 07:45:39;;;;;;;45.25;41.65;;;9.80;99.90;;;;;;5246916;28;20021;-74
2023/03/22 07:48:10;;;;;;;47.03;43.00;;;9.90;99.90;;;;;;5247084;28;20017;-75
2023/03/22 07:50:41;;;;;;;47.55;43.90;;;10.00;99.90;;;;;;5229022;28;20391;-75
2023/03/22 07:53:13;;;;;;;46.00;42.28;;;9.90;99.90;;;;;;5246875;28;20044;-76
2023/03/22 07:55:43;;;;;;;44.58;41.15;;;9.90;99.90;;;;;;5246890;28;20362;-68
2023/03/22 07:58:14;;;;;;;43.53;39.95;;;9.70;99.90;;;;;;5246967;28;20082;-75
2023/03/22 08:00:48;;;;;;;48.92;44.88;;;9.80;99.90;;;;;;5246970;28;20025;-76
2023/03/22 08:03:20;;;;;;;46.60;42.78;;;9.90;99.90;;;;;;5247173;28;20468;-68
2023/03/22 08:05:51;;;;;;;46.20;42.70;;;10.00;99.90;;;;;;5245837;28;20029;-76
2023/03/22 08:08:22;;;;;;;50.58;46.78;;;9.90;99.90;;;;;;5247002;28;20028;-68
2023/03/22 08:10:53;;;;;;;47.85;44.08;;;9.80;99.90;;;;;;5246910;28;20023;-70
2023/03/22 08:13:24;;;;;;;47.38;43.78;;;9.80;99.90;;;;;;5246838;28;20028;-69
2023/03/22 08:15:55;;;;;;;50.03;45.67;;;9.90;99.90;;;;;;5235170;28;20347;-69
2023/03/22 08:18:26;;;;;;;51.45;47.22;;;9.80;99.90;;;;;;5226242;28;20076;-69
2023/03/22 08:20:58;;;;;;;51.50;47.55;;;9.70;99.90;;;;;;5225994;28;20504;-68
2023/03/22 08:23:29;;;;;;;195.90;93.90;;;9.90;99.90;;;;;;5208146;28;20087;-69
2023/03/22 08:26:00;;;;;;;318.20;196.80;;;9.80;99.90;;;;;;5225754;28;20033;-70
2023/03/22 08:28:31;;;;;;;118.45;105.82;;;9.80;99.90;;;;;;5225792;28;20055;-69
2023/03/22 08:31:13;;;;;;;76.40;69.43;;;9.90;99.90;;;;;;5225657;28;20083;-72
2023/03/22 08:33:45;;;;;;;49.67;45.80;;;9.80;99.90;;;;;;5229070;28;20025;-67
2023/03/22 08:36:19;;;;;;;51.97;47.92;;;9.90;99.90;;;;;;5229663;28;20036;-71
2023/03/22 08:38:49;;;;;;;47.45;43.80;;;9.70;99.90;;;;;;5229490;28;20414;-69
2023/03/22 08:41:22;;;;;;;48.08;44.03;;;9.90;99.90;;;;;;5229362;28;20033;-69
2023/03/22 08:43:53;;;;;;;44.95;41.35;;;9.80;99.90;;;;;;5229250;28;20112;-73
2023/03/22 08:46:23;;;;;;;49.85;46.08;;;9.80;99.90;;;;;;5211395;28;20116;-69
2023/03/22 08:48:57;;;;;;;46.72;42.95;;;9.80;99.90;;;;;;5211408;28;20028;-69
2023/03/22 08:51:30;;;;;;;49.55;45.33;;;9.90;99.90;;;;;;5229234;28;20021;-74
2023/03/22 08:54:03;;;;;;;46.60;42.65;;;9.80;99.90;;;;;;5229035;28;20101;-69
2023/03/22 08:56:36;;;;;;;51.83;47.63;;;9.80;99.90;;;;;;5228931;28;20389;-68
2023/03/22 08:59:09;;;;;;;51.08;46.90;;;9.90;99.90;;;;;;5229113;28;20100;-68
2023/03/22 09:01:39;;;;;;;50.13;46.13;;;9.80;99.90;;;;;;5228907;28;20039;-75
2023/03/22 09:04:10;;;;;;;49.25;45.45;;;9.80;99.90;;;;;;5228961;28;20104;-76
2023/03/22 09:06:44;;;;;;;51.13;46.97;;;9.80;99.90;;;;;;5211120;28;20457;-75
2023/03/22 09:09:15;;;;;;;51.05;46.65;;;9.80;99.90;;;;;;5211129;28;20055;-74
2023/03/22 09:11:46;;;;;;;53.90;49.40;;;10.00;99.90;;;;;;5228894;28;20460;-69
2023/03/22 09:14:17;;;;;;;49.03;44.95;;;10.00;99.90;;;;;;5228809;28;20044;-76
2023/03/22 09:16:47;;;;;;;69.57;63.58;;;10.00;99.90;;;;;;5228749;28;20377;-68
2023/03/22 09:19:18;;;;;;;48.47;44.25;;;9.90;99.90;;;;;;5229125;28;20025;-75
2023/03/22 09:21:49;;;;;;;47.97;43.35;;;9.80;99.90;;;;;;5228705;28;20041;-74
2023/03/22 09:24:20;;;;;;;52.10;46.80;;;9.80;99.90;;;;;;5228854;28;20461;-75
2023/03/22 09:26:51;;;;;;;48.58;44.40;;;9.90;99.90;;;;;;5228365;28;20048;-75
2023/03/22 09:29:22;;;;;;;50.38;45.95;;;10.10;99.90;;;;;;5228787;28;20023;-75
2023/03/22 09:31:53;;;;;;;52.25;47.50;;;9.90;99.90;;;;;;5228739;28;20025;-75
2023/03/22 09:34:24;;;;;;;53.88;48.88;;;10.10;99.90;;;;;;5228521;28;20107;-75
2023/03/22 09:36:57;;;;;;;52.83;47.65;;;10.00;99.90;;;;;;5228536;28;20028;-74
2023/03/22 09:39:28;;;;;;;57.15;52.15;;;10.10;99.90;;;;;;5228375;28;20033;-75
2023/03/22 09:42:03;;;;;;;55.63;50.20;;;10.10;99.90;;;;;;5228430;28;20033;-68
2023/03/22 09:44:44;;;;;;;53.28;48.50;;;10.20;99.90;;;;;;5210023;28;20416;-74
2023/03/22 09:47:20;;;;;;;54.80;49.72;;;10.00;99.90;;;;;;5228443;28;20040;-74
2023/03/22 09:50:00;;;;;;;54.30;49.75;;;9.90;99.90;;;;;;5210399;28;20029;-73
2023/03/22 09:52:31;;;;;;;55.73;50.70;;;10.00;99.90;;;;;;5228248;28;20029;-73
2023/03/22 09:55:02;;;;;;;51.78;47.15;;;10.10;99.90;;;;;;5227966;28;20270;-74
2023/03/22 09:57:36;;;;;;;51.38;46.55;;;10.20;99.90;;;;;;5227920;28;20033;-68
2023/03/22 10:00:15;;;;;;;51.42;46.75;;;10.20;99.90;;;;;;5228050;28;20080;-68
2023/03/22 10:03:12;;;;;;;54.63;50.13;;;10.30;99.90;;;;;;5227863;28;20032;-68
2023/03/22 10:05:56;;;;;;;49.70;44.83;;;9.90;99.90;;;;;;5213529;28;20120;-69
2023/03/22 10:09:05;;;;;;;49.78;44.60;;;10.10;99.90;;;;;;5209971;28;20064;-68
2023/03/22 10:11:45;;;;;;;49.42;45.42;;;10.10;99.90;;;;;;5197120;28;20453;-73
2023/03/22 10:14:31;;;;;;;49.38;44.13;;;10.10;99.90;;;;;;5213871;28;20471;-69
2023/03/22 10:17:08;;;;;;;51.65;47.15;;;10.20;99.90;;;;;;5248317;28;20032;-74
2023/03/22 10:20:04;;;;;;;50.00;45.55;;;10.10;99.90;;;;;;5248386;28;20020;-72
2023/03/22 10:22:40;;;;;;;48.70;44.28;;;10.10;99.90;;;;;;5237888;28;20499;-73
2023/03/22 10:25:19;;;;;;;49.53;45.42;;;10.30;99.90;;;;;;5234938;28;20027;-73
2023/03/22 10:27:51;;;;;;;46.40;42.28;;;10.10;99.90;;;;;;5235602;28;20059;-73
2023/03/22 10:30:25;;;;;;;47.97;43.47;;;10.20;99.90;;;;;;5236053;28;20130;-74
2023/03/22 10:33:10;;;;;;;47.72;43.72;;;10.10;99.90;;;;;;5235677;28;20028;-73
2023/03/22 10:35:42;;;;;;;47.78;43.38;;;10.20;99.90;;;;;;5232015;28;20009;-74
2023/03/22 10:38:23;;;;;;;49.72;45.05;;;10.30;99.90;;;;;;5239107;28;20028;-74
2023/03/22 10:40:58;;;;;;;49.58;45.05;;;10.10;99.90;;;;;;5235743;28;20730;-73
2023/03/22 10:43:38;;;;;;;48.85;44.70;;;10.20;99.90;;;;;;5235760;28;20155;-74
2023/03/22 10:46:17;;;;;;;51.97;47.97;;;10.30;99.90;;;;;;5235673;28;20104;-69
2023/03/22 10:48:55;;;;;;;68.55;61.88;;;10.10;99.90;;;;;;5235403;28;20108;-75
2023/03/22 10:51:45;;;;;;;80.55;69.80;;;10.30;99.90;;;;;;5235749;28;20515;-69
2023/03/22 10:54:23;;;;;;;63.60;56.70;;;10.30;99.90;;;;;;5233544;28;20471;-73
2023/03/22 10:56:54;;;;;;;63.78;57.13;;;10.30;99.90;;;;;;5236435;28;20036;-70
2023/03/22 10:59:54;;;;;;;71.97;61.13;;;10.30;99.90;;;;;;5236575;28;20029;-75
2023/03/22 11:02:31;;;;;;;66.20;59.20;;;10.30;99.90;;;;;;5234132;28;20063;-77
2023/03/22 11:05:04;;;;;;;88.32;73.97;;;10.20;99.90;;;;;;5215277;28;20112;-74
2023/03/22 11:07:41;;;;;;;61.40;55.13;;;10.30;99.90;;;;;;5235308;28;20017;-78
2023/03/22 11:10:26;;;;;;;59.15;53.35;;;10.20;99.90;;;;;;5235311;28;20021;-68
2023/03/22 11:13:08;;;;;;;63.90;57.47;;;10.00;99.90;;;;;;5235057;28;20021;-75
2023/03/22 11:15:48;;;;;;;46.95;42.95;;;10.30;99.90;;;;;;5230946;28;20376;-74
2023/03/22 11:18:20;;;;;;;51.50;47.25;;;10.20;99.90;;;;;;5229746;28;20017;-76
2023/03/22 11:21:09;;;;;;;50.75;46.28;;;10.10;99.90;;;;;;5234516;28;20039;-71
2023/03/22 11:23:48;;;;;;;52.72;47.92;;;10.10;99.90;;;;;;5225744;28;20086;-69
2023/03/22 11:26:29;;;;;;;49.25;44.63;;;10.20;99.90;;;;;;5225611;28;20048;-76
2023/03/22 11:29:17;;;;;;;55.17;50.72;;;10.20;99.90;;;;;;5231754;28;20041;-74
2023/03/22 11:31:56;;;;;;;87.25;78.40;;;10.20;99.90;;;;;;5234612;28;20481;-76
2023/03/22 11:34:29;;;;;;;57.83;52.10;;;10.10;99.90;;;;;;5218045;28;20025;-77
2023/03/22 11:37:00;;;;;;;72.45;64.82;;;9.90;99.90;;;;;;5228194;28;20024;-71
2023/03/22 11:39:31;;;;;;;55.15;50.28;;;10.00;99.90;;;;;;5236205;28;20025;-75
2023/03/22 11:42:05;;;;;;;51.35;47.17;;;10.00;99.90;;;;;;5236404;28;20032;-75
2023/03/22 11:44:36;;;;;;;61.20;55.95;;;10.00;99.90;;;;;;5235660;28;20405;-75
2023/03/22 11:47:11;;;;;;;61.63;56.17;;;10.00;99.90;;;;;;5234743;28;20020;-76
2023/03/22 11:49:55;;;;;;;43.33;38.97;;;10.10;99.90;;;;;;5234667;28;20351;-75
2023/03/22 11:52:26;;;;;;;44.97;40.92;;;10.10;99.90;;;;;;5234744;28;20025;-74
2023/03/22 11:54:59;;;;;;;49.17;45.08;;;10.10;99.90;;;;;;5235233;28;20025;-76
2023/03/22 11:57:33;;;;;;;53.72;49.08;;;9.90;99.90;;;;;;5234694;28;20029;-74
2023/03/22 12:00:19;;;;;;;45.80;41.38;;;10.00;99.90;;;;;;5225153;28;20024;-76
2023/03/22 12:03:05;;;;;;;47.20;43.30;;;9.90;99.90;;;;;;5234730;28;20091;-75
2023/03/22 12:05:42;;;;;;;49.55;45.00;;;9.90;99.90;;;;;;5232902;28;20029;-74
2023/03/22 12:08:54;;;;;;;43.78;39.80;;;10.00;99.90;;;;;;5233566;28;20036;-76
2023/03/22 12:11:47;;;;;;;50.65;46.42;;;10.20;99.90;;;;;;5174517;28;20065;-76
2023/03/22 12:14:21;;;;;;;51.17;46.42;;;10.00;99.90;;;;;;5234399;28;20012;-76
2023/03/22 12:17:04;;;;;;;49.88;45.40;;;10.00;99.90;;;;;;5234356;28;20475;-76
2023/03/22 12:20:07;;;;;;;50.25;46.03;;;10.20;99.90;;;;;;5234282;28;20019;-75
2023/03/22 12:22:44;;;;;;;51.20;47.00;;;9.90;99.90;;;;;;5220357;28;20127;-75
2023/03/22 12:25:17;;;;;;;52.80;47.90;;;10.00;99.90;;;;;;5218901;28;20468;-70
2023/03/22 12:27:54;;;;;;;46.00;42.00;;;10.10;99.90;;;;;;5218130;28;20064;-70
2023/03/22 12:30:32;;;;;;;47.67;43.38;;;10.00;99.90;;;;;;5234472;28;20425;-69
2023/03/22 12:33:06;;;;;;;47.83;43.55;;;9.80;99.90;;;;;;5237920;28;20028;-73
2023/03/22 12:35:42;;;;;;;51.72;46.13;;;9.80;99.90;;;;;;5220556;28;20028;-73
2023/03/22 12:38:22;;;;;;;49.85;45.38;;;10.10;99.90;;;;;;5238394;28;20025;-69
2023/03/22 12:40:56;;;;;;;55.65;51.05;;;10.00;99.90;;;;;;5225797;28;20044;-71
2023/03/22 12:43:38;;;;;;;48.63;44.03;;;9.90;99.90;;;;;;5249347;28;20024;-76
2023/03/22 12:46:19;;;;;;;50.70;46.65;;;9.80;99.90;;;;;;5231415;28;20024;-70
2023/03/22 12:49:01;;;;;;;;;;;9.80;99.90;;;;;;5249806;28;20032;-71
2023/03/22 12:51:32;;;;;;;54.72;50.15;;;9.80;99.90;;;;;;5249456;28;19948;-73
2023/03/22 12:54:03;;;;;;;51.25;46.05;;;9.80;99.90;;;;;;5249441;28;20504;-75
2023/03/22 12:56:40;;;;;;;47.35;43.47;;;10.00;99.90;;;;;;5231062;28;20135;-69
2023/03/22 12:59:25;;;;;;;51.60;47.38;;;9.90;99.90;;;;;;5249342;28;20020;-69
2023/03/22 13:02:33;;;;;;;47.20;42.47;;;10.00;99.90;;;;;;5244858;28;20057;-76
2023/03/22 13:05:08;;;;;;;62.33;55.92;;;9.90;99.90;;;;;;5246466;28;20025;-68
2023/03/22 13:07:51;;;;;;;50.40;45.83;;;9.90;99.90;;;;;;5233016;28;20032;-78
2023/03/22 13:10:28;;;;;;;47.78;43.65;;;9.90;99.90;;;;;;5228111;28;20444;-77
2023/03/22 13:13:16;;;;;;;51.58;47.13;;;10.00;99.90;;;;;;5210164;28;20469;-72
2023/03/22 13:16:08;;;;;;;52.03;47.35;;;9.90;99.90;;;;;;5229080;28;20025;-75